sensor_id;sensor_type;location;lat;lon;timestamp;P1;durP1;ratioP1;P2;durP2;ratioP2
70981;SDS011;58640;51.320;9.456;2022-11-18T00:00:47;13.05;;;4.75;;
70981;SDS011;58640;51.320;9.456;2022-11-18T00:03:13;9.50;;;5.30;;
70981;SDS011;58640;51.320;9.456;2022-11-18T00:05:39;7.07;;;4.75;;
70981;SDS011;58640;51.320;9.456;2022-11-18T00:08:05;10.23;;;6.00;;
70981;SDS011;58640;51.320;9.456;2022-11-18T00:10:30;7.13;;;5.10;;
70981;SDS011;58640;51.320;9.456;2022-11-18T00:12:56;9.07;;;4.97;;
70981;SDS011;58640;51.320;9.456;2022-11-18T00:15:40;10.02;;;5.82;;
70981;SDS011;58640;51.320;9.456;2022-11-18T00:18:06;7.85;;;5.63;;
70981;SDS011;58640;51.320;9.456;2022-11-18T00:20:32;8.05;;;5.53;;
70981;SDS011;58640;51.320;9.456;2022-11-18T00:22:58;12.38;;;6.32;;
70981;SDS011;58640;51.320;9.456;2022-11-18T00:25:24;12.32;;;6.22;;
70981;SDS011;58640;51.320;9.456;2022-11-18T00:27:49;10.57;;;6.18;;
70981;SDS011;58640;51.320;9.456;2022-11-18T00:30:14;9.43;;;5.57;;
70981;SDS011;58640;51.320;9.456;2022-11-18T00:32:40;9.93;;;5.63;;
70981;SDS011;58640;51.320;9.456;2022-11-18T00:35:05;11.40;;;5.90;;
70981;SDS011;58640;51.320;9.456;2022-11-18T00:37:32;7.40;;;4.78;;
70981;SDS011;58640;51.320;9.456;2022-11-18T00:39:57;10.57;;;5.40;;
70981;SDS011;58640;51.320;9.456;2022-11-18T00:42:22;7.03;;;4.30;;
70981;SDS011;58640;51.320;9.456;2022-11-18T00:45:06;10.05;;;4.15;;
70981;SDS011;58640;51.320;9.456;2022-11-18T00:47:32;12.13;;;5.18;;
70981;SDS011;58640;51.320;9.456;2022-11-18T00:49:57;9.10;;;4.82;;
70981;SDS011;58640;51.320;9.456;2022-11-18T00:52:23;8.50;;;4.72;;
70981;SDS011;58640;51.320;9.456;2022-11-18T00:54:48;8.27;;;4.78;;
70981;SDS011;58640;51.320;9.456;2022-11-18T00:57:13;7.35;;;4.10;;
70981;SDS011;58640;51.320;9.456;2022-11-18T00:59:39;5.15;;;3.97;;
70981;SDS011;58640;51.320;9.456;2022-11-18T01:02:04;6.75;;;4.70;;
70981;SDS011;58640;51.320;9.456;2022-11-18T01:04:29;8.93;;;4.35;;
70981;SDS011;58640;51.320;9.456;2022-11-18T01:06:55;8.77;;;4.50;;
70981;SDS011;58640;51.320;9.456;2022-11-18T01:09:20;11.90;;;5.07;;
70981;SDS011;58640;51.320;9.456;2022-11-18T01:11:45;8.85;;;4.53;;
70981;SDS011;58640;51.320;9.456;2022-11-18T01:14:30;8.80;;;4.82;;
70981;SDS011;58640;51.320;9.456;2022-11-18T01:16:55;8.50;;;4.47;;
70981;SDS011;58640;51.320;9.456;2022-11-18T01:19:21;8.40;;;4.10;;
70981;SDS011;58640;51.320;9.456;2022-11-18T01:21:47;10.35;;;4.57;;
70981;SDS011;58640;51.320;9.456;2022-11-18T01:24:13;10.27;;;4.85;;
70981;SDS011;58640;51.320;9.456;2022-11-18T01:26:39;9.45;;;4.53;;
70981;SDS011;58640;51.320;9.456;2022-11-18T01:29:04;9.77;;;4.55;;
70981;SDS011;58640;51.320;9.456;2022-11-18T01:31:29;10.93;;;4.57;;
70981;SDS011;58640;51.320;9.456;2022-11-18T01:33:55;7.15;;;4.07;;
70981;SDS011;58640;51.320;9.456;2022-11-18T01:36:23;8.38;;;5.47;;
70981;SDS011;58640;51.320;9.456;2022-11-18T01:38:50;6.43;;;4.43;;
70981;SDS011;58640;51.320;9.456;2022-11-18T01:41:16;9.15;;;5.57;;
70981;SDS011;58640;51.320;9.456;2022-11-18T01:43:53;11.05;;;4.80;;
70981;SDS011;58640;51.320;9.456;2022-11-18T01:46:19;8.13;;;5.20;;
70981;SDS011;58640;51.320;9.456;2022-11-18T01:48:47;8.43;;;5.00;;
70981;SDS011;58640;51.320;9.456;2022-11-18T01:51:18;8.45;;;4.70;;
70981;SDS011;58640;51.320;9.456;2022-11-18T01:53:49;9.20;;;5.32;;
70981;SDS011;58640;51.320;9.456;2022-11-18T01:56:20;9.40;;;5.10;;
70981;SDS011;58640;51.320;9.456;2022-11-18T01:58:51;10.30;;;4.95;;
70981;SDS011;58640;51.320;9.456;2022-11-18T02:01:19;8.10;;;4.78;;
70981;SDS011;58640;51.320;9.456;2022-11-18T02:03:45;7.10;;;5.10;;
70981;SDS011;58640;51.320;9.456;2022-11-18T02:06:12;12.43;;;5.57;;
70981;SDS011;58640;51.320;9.456;2022-11-18T02:08:38;8.07;;;5.30;;
70981;SDS011;58640;51.320;9.456;2022-11-18T02:11:08;8.65;;;5.07;;
70981;SDS011;58640;51.320;9.456;2022-11-18T02:13:55;7.10;;;4.82;;
70981;SDS011;58640;51.320;9.456;2022-11-18T02:16:21;8.55;;;5.57;;
70981;SDS011;58640;51.320;9.456;2022-11-18T02:19:00;8.32;;;5.03;;
70981;SDS011;58640;51.320;9.456;2022-11-18T02:29:45;6.57;;;4.40;;
70981;SDS011;58640;51.320;9.456;2022-11-18T02:32:31;10.13;;;4.38;;
70981;SDS011;58640;51.320;9.456;2022-11-18T02:42:39;6.38;;;3.67;;
70981;SDS011;58640;51.320;9.456;2022-11-18T02:45:09;6.75;;;4.22;;
70981;SDS011;58640;51.320;9.456;2022-11-18T02:47:41;7.80;;;4.43;;
70981;SDS011;58640;51.320;9.456;2022-11-18T02:50:10;7.45;;;3.90;;
70981;SDS011;58640;51.320;9.456;2022-11-18T02:52:40;7.78;;;4.55;;
70981;SDS011;58640;51.320;9.456;2022-11-18T02:55:08;4.97;;;3.80;;
70981;SDS011;58640;51.320;9.456;2022-11-18T02:57:36;6.25;;;4.70;;
70981;SDS011;58640;51.320;9.456;2022-11-18T03:00:03;6.72;;;4.00;;
70981;SDS011;58640;51.320;9.456;2022-11-18T03:02:38;7.22;;;3.90;;
70981;SDS011;58640;51.320;9.456;2022-11-18T03:05:05;9.93;;;4.50;;
70981;SDS011;58640;51.320;9.456;2022-11-18T03:07:37;7.55;;;4.63;;
70981;SDS011;58640;51.320;9.456;2022-11-18T03:10:05;7.85;;;4.75;;
70981;SDS011;58640;51.320;9.456;2022-11-18T03:15:49;8.90;;;4.88;;
70981;SDS011;58640;51.320;9.456;2022-11-18T03:20:48;13.23;;;5.80;;
70981;SDS011;58640;51.320;9.456;2022-11-18T03:23:27;10.38;;;6.38;;
70981;SDS011;58640;51.320;9.456;2022-11-18T03:26:04;11.68;;;5.50;;
70981;SDS011;58640;51.320;9.456;2022-11-18T03:33:48;11.27;;;6.43;;
70981;SDS011;58640;51.320;9.456;2022-11-18T03:36:18;12.20;;;6.80;;
70981;SDS011;58640;51.320;9.456;2022-11-18T03:38:47;7.88;;;5.65;;
70981;SDS011;58640;51.320;9.456;2022-11-18T03:41:17;9.38;;;5.85;;
70981;SDS011;58640;51.320;9.456;2022-11-18T03:43:56;11.52;;;6.32;;
70981;SDS011;58640;51.320;9.456;2022-11-18T03:46:34;8.35;;;5.45;;
70981;SDS011;58640;51.320;9.456;2022-11-18T03:49:04;11.07;;;6.28;;
70981;SDS011;58640;51.320;9.456;2022-11-18T03:51:36;9.75;;;6.20;;
70981;SDS011;58640;51.320;9.456;2022-11-18T03:54:14;9.95;;;5.65;;
70981;SDS011;58640;51.320;9.456;2022-11-18T03:56:53;9.35;;;5.18;;
70981;SDS011;58640;51.320;9.456;2022-11-18T03:59:37;10.63;;;6.18;;
70981;SDS011;58640;51.320;9.456;2022-11-18T04:02:10;9.38;;;5.57;;
70981;SDS011;58640;51.320;9.456;2022-11-18T04:04:36;10.35;;;5.63;;
70981;SDS011;58640;51.320;9.456;2022-11-18T04:07:22;11.30;;;5.43;;
70981;SDS011;58640;51.320;9.456;2022-11-18T04:09:54;9.98;;;6.00;;
70981;SDS011;58640;51.320;9.456;2022-11-18T04:12:21;10.75;;;5.70;;
70981;SDS011;58640;51.320;9.456;2022-11-18T04:14:50;8.90;;;5.55;;
70981;SDS011;58640;51.320;9.456;2022-11-18T04:17:20;11.30;;;5.60;;
70981;SDS011;58640;51.320;9.456;2022-11-18T04:19:47;9.77;;;6.40;;
70981;SDS011;58640;51.320;9.456;2022-11-18T04:22:13;8.05;;;5.32;;
70981;SDS011;58640;51.320;9.456;2022-11-18T04:24:39;7.40;;;5.45;;
70981;SDS011;58640;51.320;9.456;2022-11-18T04:27:05;9.75;;;6.00;;
70981;SDS011;58640;51.320;9.456;2022-11-18T04:29:31;7.43;;;5.45;;
70981;SDS011;58640;51.320;9.456;2022-11-18T04:31:57;9.07;;;5.97;;
70981;SDS011;58640;51.320;9.456;2022-11-18T04:34:24;9.50;;;5.82;;
70981;SDS011;58640;51.320;9.456;2022-11-18T04:36:49;16.00;;;7.80;;
70981;SDS011;58640;51.320;9.456;2022-11-18T04:39:14;9.75;;;5.93;;
70981;SDS011;58640;51.320;9.456;2022-11-18T04:41:42;9.02;;;6.55;;
70981;SDS011;58640;51.320;9.456;2022-11-18T04:46:52;9.68;;;6.47;;
70981;SDS011;58640;51.320;9.456;2022-11-18T04:49:19;9.98;;;5.78;;
70981;SDS011;58640;51.320;9.456;2022-11-18T04:51:45;8.38;;;5.80;;
70981;SDS011;58640;51.320;9.456;2022-11-18T04:54:10;13.43;;;6.15;;
70981;SDS011;58640;51.320;9.456;2022-11-18T04:56:37;12.13;;;6.25;;
70981;SDS011;58640;51.320;9.456;2022-11-18T05:01:32;13.95;;;6.75;;
70981;SDS011;58640;51.320;9.456;2022-11-18T05:03:58;9.70;;;6.00;;
70981;SDS011;58640;51.320;9.456;2022-11-18T05:06:25;11.45;;;7.15;;
70981;SDS011;58640;51.320;9.456;2022-11-18T05:08:50;11.32;;;6.43;;
70981;SDS011;58640;51.320;9.456;2022-11-18T05:11:15;12.68;;;6.57;;
70981;SDS011;58640;51.320;9.456;2022-11-18T05:13:59;10.10;;;6.70;;
70981;SDS011;58640;51.320;9.456;2022-11-18T05:16:24;9.57;;;6.22;;
70981;SDS011;58640;51.320;9.456;2022-11-18T05:18:50;10.63;;;7.03;;
70981;SDS011;58640;51.320;9.456;2022-11-18T05:21:15;11.05;;;7.55;;
70981;SDS011;58640;51.320;9.456;2022-11-18T05:23:41;13.60;;;8.75;;
70981;SDS011;58640;51.320;9.456;2022-11-18T05:26:07;13.45;;;10.13;;
70981;SDS011;58640;51.320;9.456;2022-11-18T05:28:34;12.80;;;9.50;;
70981;SDS011;58640;51.320;9.456;2022-11-18T05:31:05;15.63;;;8.93;;
70981;SDS011;58640;51.320;9.456;2022-11-18T05:33:35;11.23;;;7.80;;
70981;SDS011;58640;51.320;9.456;2022-11-18T05:36:04;16.83;;;8.05;;
70981;SDS011;58640;51.320;9.456;2022-11-18T05:38:31;13.13;;;7.78;;
70981;SDS011;58640;51.320;9.456;2022-11-18T05:40:57;13.43;;;7.88;;
70981;SDS011;58640;51.320;9.456;2022-11-18T05:43:22;15.23;;;9.90;;
70981;SDS011;58640;51.320;9.456;2022-11-18T05:45:48;13.05;;;8.65;;
70981;SDS011;58640;51.320;9.456;2022-11-18T05:48:15;18.10;;;8.63;;
70981;SDS011;58640;51.320;9.456;2022-11-18T05:50:40;13.88;;;9.10;;
70981;SDS011;58640;51.320;9.456;2022-11-18T05:53:05;11.80;;;8.52;;
70981;SDS011;58640;51.320;9.456;2022-11-18T05:55:36;14.48;;;8.73;;
70981;SDS011;58640;51.320;9.456;2022-11-18T05:58:06;18.35;;;9.13;;
70981;SDS011;58640;51.320;9.456;2022-11-18T06:00:31;14.48;;;8.15;;
70981;SDS011;58640;51.320;9.456;2022-11-18T06:02:57;16.63;;;9.85;;
70981;SDS011;58640;51.320;9.456;2022-11-18T06:05:23;15.80;;;8.88;;
70981;SDS011;58640;51.320;9.456;2022-11-18T06:07:50;15.43;;;8.27;;
70981;SDS011;58640;51.320;9.456;2022-11-18T06:10:20;11.00;;;7.65;;
70981;SDS011;58640;51.320;9.456;2022-11-18T06:12:50;11.63;;;8.25;;
70981;SDS011;58640;51.320;9.456;2022-11-18T06:15:19;13.95;;;8.68;;
70981;SDS011;58640;51.320;9.456;2022-11-18T06:17:52;11.35;;;8.68;;
70981;SDS011;58640;51.320;9.456;2022-11-18T06:20:23;12.48;;;8.93;;
70981;SDS011;58640;51.320;9.456;2022-11-18T06:22:50;14.07;;;9.38;;
70981;SDS011;58640;51.320;9.456;2022-11-18T06:25:18;14.73;;;9.32;;
70981;SDS011;58640;51.320;9.456;2022-11-18T06:27:44;14.57;;;9.45;;
70981;SDS011;58640;51.320;9.456;2022-11-18T06:30:11;11.63;;;8.48;;
70981;SDS011;58640;51.320;9.456;2022-11-18T06:32:37;14.27;;;9.27;;
70981;SDS011;58640;51.320;9.456;2022-11-18T06:35:03;19.08;;;10.73;;
70981;SDS011;58640;51.320;9.456;2022-11-18T06:37:29;14.70;;;9.52;;
70981;SDS011;58640;51.320;9.456;2022-11-18T06:39:54;16.90;;;9.75;;
70981;SDS011;58640;51.320;9.456;2022-11-18T06:42:19;14.15;;;8.52;;
70981;SDS011;58640;51.320;9.456;2022-11-18T06:45:03;14.05;;;9.18;;
70981;SDS011;58640;51.320;9.456;2022-11-18T06:47:29;15.70;;;9.35;;
70981;SDS011;58640;51.320;9.456;2022-11-18T06:49:54;13.70;;;9.52;;
70981;SDS011;58640;51.320;9.456;2022-11-18T06:52:20;14.30;;;9.90;;
70981;SDS011;58640;51.320;9.456;2022-11-18T06:54:46;13.10;;;9.50;;
70981;SDS011;58640;51.320;9.456;2022-11-18T06:57:12;12.63;;;9.10;;
70981;SDS011;58640;51.320;9.456;2022-11-18T06:59:37;13.98;;;9.50;;
70981;SDS011;58640;51.320;9.456;2022-11-18T07:02:02;15.38;;;9.38;;
70981;SDS011;58640;51.320;9.456;2022-11-18T07:04:28;12.50;;;9.10;;
70981;SDS011;58640;51.320;9.456;2022-11-18T07:06:53;18.38;;;9.68;;
70981;SDS011;58640;51.320;9.456;2022-11-18T07:09:18;12.75;;;8.80;;
70981;SDS011;58640;51.320;9.456;2022-11-18T07:11:44;14.77;;;9.55;;
70981;SDS011;58640;51.320;9.456;2022-11-18T07:14:09;15.13;;;9.48;;
70981;SDS011;58640;51.320;9.456;2022-11-18T07:16:35;15.48;;;9.13;;
70981;SDS011;58640;51.320;9.456;2022-11-18T07:19:06;13.43;;;9.52;;
70981;SDS011;58640;51.320;9.456;2022-11-18T07:21:35;13.93;;;8.98;;
70981;SDS011;58640;51.320;9.456;2022-11-18T07:24:03;13.82;;;9.38;;
70981;SDS011;58640;51.320;9.456;2022-11-18T07:26:30;18.63;;;9.43;;
70981;SDS011;58640;51.320;9.456;2022-11-18T07:28:56;14.05;;;9.02;;
70981;SDS011;58640;51.320;9.456;2022-11-18T07:31:21;15.18;;;9.75;;
70981;SDS011;58640;51.320;9.456;2022-11-18T07:33:47;14.68;;;9.38;;
70981;SDS011;58640;51.320;9.456;2022-11-18T07:36:13;15.18;;;8.95;;
70981;SDS011;58640;51.320;9.456;2022-11-18T07:38:40;16.20;;;10.02;;
70981;SDS011;58640;51.320;9.456;2022-11-18T07:41:07;18.80;;;10.40;;
70981;SDS011;58640;51.320;9.456;2022-11-18T07:43:36;17.08;;;10.20;;
70981;SDS011;58640;51.320;9.456;2022-11-18T07:46:16;14.02;;;9.45;;
70981;SDS011;58640;51.320;9.456;2022-11-18T07:48:46;18.13;;;10.80;;
70981;SDS011;58640;51.320;9.456;2022-11-18T07:51:13;19.35;;;10.63;;
70981;SDS011;58640;51.320;9.456;2022-11-18T07:53:40;17.40;;;10.73;;
70981;SDS011;58640;51.320;9.456;2022-11-18T07:56:06;19.98;;;10.70;;
70981;SDS011;58640;51.320;9.456;2022-11-18T07:58:32;20.30;;;10.63;;
70981;SDS011;58640;51.320;9.456;2022-11-18T08:01:05;19.23;;;10.35;;
70981;SDS011;58640;51.320;9.456;2022-11-18T08:03:34;17.17;;;10.68;;
70981;SDS011;58640;51.320;9.456;2022-11-18T08:06:00;24.25;;;12.23;;
70981;SDS011;58640;51.320;9.456;2022-11-18T08:08:26;19.77;;;11.30;;
70981;SDS011;58640;51.320;9.456;2022-11-18T08:10:55;19.05;;;11.50;;
70981;SDS011;58640;51.320;9.456;2022-11-18T08:13:22;22.55;;;12.13;;
70981;SDS011;58640;51.320;9.456;2022-11-18T08:15:48;19.80;;;11.43;;
70981;SDS011;58640;51.320;9.456;2022-11-18T08:18:13;24.75;;;12.75;;
70981;SDS011;58640;51.320;9.456;2022-11-18T08:20:38;22.13;;;13.27;;
70981;SDS011;58640;51.320;9.456;2022-11-18T08:23:04;20.90;;;13.45;;
70981;SDS011;58640;51.320;9.456;2022-11-18T08:25:29;21.55;;;13.23;;
70981;SDS011;58640;51.320;9.456;2022-11-18T08:27:54;28.80;;;13.77;;
70981;SDS011;58640;51.320;9.456;2022-11-18T08:30:20;25.52;;;13.45;;
70981;SDS011;58640;51.320;9.456;2022-11-18T08:32:45;25.80;;;13.98;;
70981;SDS011;58640;51.320;9.456;2022-11-18T08:35:11;23.95;;;13.35;;
70981;SDS011;58640;51.320;9.456;2022-11-18T08:37:36;27.38;;;15.15;;
70981;SDS011;58640;51.320;9.456;2022-11-18T08:40:02;24.73;;;14.32;;
70981;SDS011;58640;51.320;9.456;2022-11-18T08:42:27;25.20;;;14.70;;
70981;SDS011;58640;51.320;9.456;2022-11-18T08:44:53;29.15;;;16.60;;
70981;SDS011;58640;51.320;9.456;2022-11-18T08:47:18;29.15;;;16.10;;
70981;SDS011;58640;51.320;9.456;2022-11-18T08:49:43;30.92;;;16.67;;
70981;SDS011;58640;51.320;9.456;2022-11-18T08:52:09;27.63;;;15.57;;
70981;SDS011;58640;51.320;9.456;2022-11-18T08:54:34;28.60;;;14.75;;
70981;SDS011;58640;51.320;9.456;2022-11-18T08:57:00;34.65;;;16.70;;
70981;SDS011;58640;51.320;9.456;2022-11-18T08:59:25;27.63;;;15.45;;
70981;SDS011;58640;51.320;9.456;2022-11-18T09:01:51;28.25;;;15.32;;
70981;SDS011;58640;51.320;9.456;2022-11-18T09:04:16;26.40;;;15.68;;
70981;SDS011;58640;51.320;9.456;2022-11-18T09:06:42;30.10;;;16.30;;
70981;SDS011;58640;51.320;9.456;2022-11-18T09:09:07;27.80;;;15.75;;
70981;SDS011;58640;51.320;9.456;2022-11-18T09:11:33;26.67;;;16.25;;
70981;SDS011;58640;51.320;9.456;2022-11-18T09:13:59;29.60;;;15.52;;
70981;SDS011;58640;51.320;9.456;2022-11-18T09:16:25;31.08;;;15.75;;
70981;SDS011;58640;51.320;9.456;2022-11-18T09:18:52;27.10;;;15.73;;
70981;SDS011;58640;51.320;9.456;2022-11-18T09:21:19;29.15;;;15.98;;
70981;SDS011;58640;51.320;9.456;2022-11-18T09:23:45;29.13;;;15.82;;
70981;SDS011;58640;51.320;9.456;2022-11-18T09:26:11;31.52;;;16.67;;
70981;SDS011;58640;51.320;9.456;2022-11-18T09:28:39;32.58;;;17.77;;
70981;SDS011;58640;51.320;9.456;2022-11-18T09:31:05;28.90;;;16.10;;
70981;SDS011;58640;51.320;9.456;2022-11-18T09:33:33;26.98;;;14.40;;
70981;SDS011;58640;51.320;9.456;2022-11-18T09:36:02;25.48;;;15.10;;
70981;SDS011;58640;51.320;9.456;2022-11-18T09:38:28;30.02;;;15.70;;
70981;SDS011;58640;51.320;9.456;2022-11-18T09:46:13;26.25;;;15.43;;
70981;SDS011;58640;51.320;9.456;2022-11-18T09:48:47;28.45;;;14.75;;
70981;SDS011;58640;51.320;9.456;2022-11-18T09:51:32;23.95;;;13.75;;
70981;SDS011;58640;51.320;9.456;2022-11-18T09:54:06;24.33;;;14.23;;
70981;SDS011;58640;51.320;9.456;2022-11-18T09:56:34;24.98;;;13.63;;
70981;SDS011;58640;51.320;9.456;2022-11-18T09:59:00;22.65;;;13.68;;
70981;SDS011;58640;51.320;9.456;2022-11-18T10:01:27;22.02;;;14.05;;
70981;SDS011;58640;51.320;9.456;2022-11-18T10:03:53;22.52;;;13.02;;
70981;SDS011;58640;51.320;9.456;2022-11-18T10:06:23;21.67;;;13.15;;
70981;SDS011;58640;51.320;9.456;2022-11-18T10:14:42;23.42;;;13.07;;
70981;SDS011;58640;51.320;9.456;2022-11-18T10:17:28;24.02;;;13.50;;
70981;SDS011;58640;51.320;9.456;2022-11-18T10:20:08;24.40;;;13.80;;
70981;SDS011;58640;51.320;9.456;2022-11-18T10:25:29;22.80;;;12.70;;
70981;SDS011;58640;51.320;9.456;2022-11-18T10:27:54;18.77;;;12.38;;
70981;SDS011;58640;51.320;9.456;2022-11-18T10:30:23;23.88;;;13.45;;
70981;SDS011;58640;51.320;9.456;2022-11-18T10:32:54;19.50;;;12.65;;
70981;SDS011;58640;51.320;9.456;2022-11-18T10:35:23;20.98;;;13.15;;
70981;SDS011;58640;51.320;9.456;2022-11-18T10:37:58;20.17;;;12.40;;
70981;SDS011;58640;51.320;9.456;2022-11-18T10:40:28;20.55;;;12.50;;
70981;SDS011;58640;51.320;9.456;2022-11-18T10:42:54;22.05;;;13.23;;
70981;SDS011;58640;51.320;9.456;2022-11-18T10:47:58;18.63;;;11.55;;
70981;SDS011;58640;51.320;9.456;2022-11-18T10:50:31;22.05;;;12.60;;
70981;SDS011;58640;51.320;9.456;2022-11-18T10:52:59;24.48;;;11.65;;
70981;SDS011;58640;51.320;9.456;2022-11-18T10:55:26;20.45;;;11.90;;
70981;SDS011;58640;51.320;9.456;2022-11-18T10:58:12;16.20;;;11.05;;
70981;SDS011;58640;51.320;9.456;2022-11-18T11:00:44;19.50;;;11.73;;
70981;SDS011;58640;51.320;9.456;2022-11-18T11:03:19;17.58;;;11.55;;
70981;SDS011;58640;51.320;9.456;2022-11-18T11:08:53;14.40;;;9.30;;
70981;SDS011;58640;51.320;9.456;2022-11-18T11:11:22;17.40;;;10.70;;
70981;SDS011;58640;51.320;9.456;2022-11-18T11:14:04;15.50;;;9.85;;
70981;SDS011;58640;51.320;9.456;2022-11-18T11:16:42;19.52;;;10.65;;
70981;SDS011;58640;51.320;9.456;2022-11-18T11:19:13;22.00;;;11.38;;
70981;SDS011;58640;51.320;9.456;2022-11-18T11:21:42;17.23;;;10.77;;
70981;SDS011;58640;51.320;9.456;2022-11-18T11:24:09;16.35;;;10.55;;
70981;SDS011;58640;51.320;9.456;2022-11-18T11:26:45;19.90;;;12.93;;
70981;SDS011;58640;51.320;9.456;2022-11-18T11:37:57;20.00;;;10.40;;
70981;SDS011;58640;51.320;9.456;2022-11-18T11:40:30;22.38;;;9.73;;
70981;SDS011;58640;51.320;9.456;2022-11-18T11:56:51;16.67;;;10.27;;
70981;SDS011;58640;51.320;9.456;2022-11-18T11:59:27;17.65;;;10.85;;
70981;SDS011;58640;51.320;9.456;2022-11-18T12:05:02;16.05;;;9.60;;
70981;SDS011;58640;51.320;9.456;2022-11-18T12:07:32;16.08;;;9.70;;
70981;SDS011;58640;51.320;9.456;2022-11-18T12:10:23;16.13;;;9.23;;
70981;SDS011;58640;51.320;9.456;2022-11-18T12:12:55;15.95;;;9.77;;
70981;SDS011;58640;51.320;9.456;2022-11-18T12:26:45;14.32;;;8.65;;
70981;SDS011;58640;51.320;9.456;2022-11-18T12:31:46;19.75;;;9.85;;
70981;SDS011;58640;51.320;9.456;2022-11-18T12:34:38;17.35;;;9.07;;
70981;SDS011;58640;51.320;9.456;2022-11-18T12:42:37;15.00;;;9.52;;
70981;SDS011;58640;51.320;9.456;2022-11-18T12:53:41;12.90;;;8.27;;
70981;SDS011;58640;51.320;9.456;2022-11-18T12:58:43;11.93;;;7.82;;
70981;SDS011;58640;51.320;9.456;2022-11-18T13:01:10;13.73;;;8.50;;
70981;SDS011;58640;51.320;9.456;2022-11-18T13:03:37;10.35;;;7.53;;
70981;SDS011;58640;51.320;9.456;2022-11-18T13:06:12;17.15;;;8.02;;
70981;SDS011;58640;51.320;9.456;2022-11-18T13:08:42;16.75;;;8.43;;
70981;SDS011;58640;51.320;9.456;2022-11-18T13:11:14;15.18;;;9.00;;
70981;SDS011;58640;51.320;9.456;2022-11-18T13:13:59;13.52;;;8.98;;
70981;SDS011;58640;51.320;9.456;2022-11-18T13:16:44;14.32;;;8.57;;
70981;SDS011;58640;51.320;9.456;2022-11-18T13:19:28;18.00;;;8.95;;
70981;SDS011;58640;51.320;9.456;2022-11-18T13:21:55;14.75;;;7.95;;
70981;SDS011;58640;51.320;9.456;2022-11-18T13:24:56;15.07;;;8.23;;
70981;SDS011;58640;51.320;9.456;2022-11-18T13:27:38;14.50;;;7.78;;
70981;SDS011;58640;51.320;9.456;2022-11-18T13:30:10;13.35;;;7.60;;
70981;SDS011;58640;51.320;9.456;2022-11-18T13:32:41;14.30;;;7.53;;
70981;SDS011;58640;51.320;9.456;2022-11-18T13:35:13;11.93;;;6.68;;
70981;SDS011;58640;51.320;9.456;2022-11-18T13:37:58;11.93;;;6.70;;
70981;SDS011;58640;51.320;9.456;2022-11-18T13:43:03;12.23;;;6.57;;
70981;SDS011;58640;51.320;9.456;2022-11-18T13:45:28;9.43;;;6.13;;
70981;SDS011;58640;51.320;9.456;2022-11-18T13:48:04;12.85;;;5.68;;
70981;SDS011;58640;51.320;9.456;2022-11-18T13:50:31;11.50;;;6.00;;
70981;SDS011;58640;51.320;9.456;2022-11-18T13:53:05;9.82;;;6.28;;
70981;SDS011;58640;51.320;9.456;2022-11-18T13:55:53;8.43;;;5.95;;
70981;SDS011;58640;51.320;9.456;2022-11-18T13:58:25;8.38;;;6.05;;
70981;SDS011;58640;51.320;9.456;2022-11-18T14:00:58;9.55;;;5.80;;
70981;SDS011;58640;51.320;9.456;2022-11-18T14:03:27;7.63;;;5.38;;
70981;SDS011;58640;51.320;9.456;2022-11-18T14:05:56;9.98;;;5.57;;
70981;SDS011;58640;51.320;9.456;2022-11-18T14:08:26;9.60;;;5.65;;
70981;SDS011;58640;51.320;9.456;2022-11-18T14:10:56;7.03;;;5.00;;
70981;SDS011;58640;51.320;9.456;2022-11-18T14:16:00;9.93;;;5.05;;
70981;SDS011;58640;51.320;9.456;2022-11-18T14:18:47;8.27;;;4.53;;
70981;SDS011;58640;51.320;9.456;2022-11-18T14:21:28;6.40;;;4.00;;
70981;SDS011;58640;51.320;9.456;2022-11-18T14:23:55;9.10;;;4.90;;
70981;SDS011;58640;51.320;9.456;2022-11-18T14:26:25;8.50;;;5.20;;
70981;SDS011;58640;51.320;9.456;2022-11-18T14:28:58;6.47;;;4.40;;
70981;SDS011;58640;51.320;9.456;2022-11-18T14:31:26;5.53;;;4.22;;
70981;SDS011;58640;51.320;9.456;2022-11-18T14:36:50;6.43;;;4.40;;
70981;SDS011;58640;51.320;9.456;2022-11-18T14:39:23;5.53;;;3.83;;
70981;SDS011;58640;51.320;9.456;2022-11-18T14:41:50;5.20;;;3.65;;
70981;SDS011;58640;51.320;9.456;2022-11-18T14:44:17;8.02;;;3.40;;
70981;SDS011;58640;51.320;9.456;2022-11-18T14:46:47;5.90;;;3.90;;
70981;SDS011;58640;51.320;9.456;2022-11-18T14:49:18;5.28;;;3.70;;
70981;SDS011;58640;51.320;9.456;2022-11-18T14:51:48;4.50;;;2.78;;
70981;SDS011;58640;51.320;9.456;2022-11-18T14:54:15;6.18;;;2.85;;
70981;SDS011;58640;51.320;9.456;2022-11-18T14:56:42;6.97;;;4.35;;
70981;SDS011;58640;51.320;9.456;2022-11-18T14:59:10;8.40;;;4.32;;
70981;SDS011;58640;51.320;9.456;2022-11-18T15:01:37;4.43;;;3.00;;
70981;SDS011;58640;51.320;9.456;2022-11-18T15:04:02;3.72;;;3.05;;
70981;SDS011;58640;51.320;9.456;2022-11-18T15:06:28;4.97;;;3.10;;
70981;SDS011;58640;51.320;9.456;2022-11-18T15:08:53;6.05;;;3.35;;
70981;SDS011;58640;51.320;9.456;2022-11-18T15:11:19;5.70;;;3.70;;
70981;SDS011;58640;51.320;9.456;2022-11-18T15:13:44;5.00;;;3.45;;
70981;SDS011;58640;51.320;9.456;2022-11-18T15:16:20;5.20;;;3.50;;
70981;SDS011;58640;51.320;9.456;2022-11-18T15:18:49;5.97;;;3.25;;
70981;SDS011;58640;51.320;9.456;2022-11-18T15:21:16;6.78;;;4.20;;
70981;SDS011;58640;51.320;9.456;2022-11-18T15:23:41;5.20;;;4.05;;
70981;SDS011;58640;51.320;9.456;2022-11-18T15:26:18;4.82;;;3.30;;
70981;SDS011;58640;51.320;9.456;2022-11-18T15:28:51;3.88;;;3.20;;
70981;SDS011;58640;51.320;9.456;2022-11-18T15:31:21;5.47;;;3.83;;
70981;SDS011;58640;51.320;9.456;2022-11-18T15:33:47;4.82;;;3.40;;
70981;SDS011;58640;51.320;9.456;2022-11-18T15:36:16;4.90;;;3.45;;
70981;SDS011;58640;51.320;9.456;2022-11-18T15:38:46;4.45;;;2.70;;
70981;SDS011;58640;51.320;9.456;2022-11-18T15:41:25;4.53;;;3.22;;
70981;SDS011;58640;51.320;9.456;2022-11-18T15:43:52;6.03;;;3.38;;
70981;SDS011;58640;51.320;9.456;2022-11-18T15:46:19;5.07;;;3.13;;
70981;SDS011;58640;51.320;9.456;2022-11-18T15:48:46;4.97;;;3.20;;
70981;SDS011;58640;51.320;9.456;2022-11-18T15:51:14;5.70;;;3.78;;
70981;SDS011;58640;51.320;9.456;2022-11-18T15:53:40;6.30;;;3.63;;
70981;SDS011;58640;51.320;9.456;2022-11-18T15:59:04;4.68;;;3.17;;
70981;SDS011;58640;51.320;9.456;2022-11-18T16:01:32;5.57;;;4.05;;
70981;SDS011;58640;51.320;9.456;2022-11-18T16:04:02;6.00;;;4.03;;
70981;SDS011;58640;51.320;9.456;2022-11-18T16:06:29;6.45;;;3.35;;
70981;SDS011;58640;51.320;9.456;2022-11-18T16:08:54;5.53;;;3.67;;
70981;SDS011;58640;51.320;9.456;2022-11-18T16:11:20;5.55;;;3.58;;
70981;SDS011;58640;51.320;9.456;2022-11-18T16:14:05;5.88;;;3.45;;
70981;SDS011;58640;51.320;9.456;2022-11-18T16:16:36;3.85;;;2.78;;
70981;SDS011;58640;51.320;9.456;2022-11-18T16:19:04;3.90;;;2.75;;
70981;SDS011;58640;51.320;9.456;2022-11-18T16:21:32;3.53;;;2.72;;
70981;SDS011;58640;51.320;9.456;2022-11-18T16:24:00;3.63;;;2.67;;
70981;SDS011;58640;51.320;9.456;2022-11-18T16:26:27;3.28;;;2.67;;
70981;SDS011;58640;51.320;9.456;2022-11-18T16:28:54;3.97;;;2.38;;
70981;SDS011;58640;51.320;9.456;2022-11-18T16:31:20;3.45;;;2.38;;
70981;SDS011;58640;51.320;9.456;2022-11-18T16:34:10;3.88;;;2.30;;
70981;SDS011;58640;51.320;9.456;2022-11-18T16:36:38;2.88;;;2.03;;
70981;SDS011;58640;51.320;9.456;2022-11-18T16:39:06;6.53;;;2.75;;
70981;SDS011;58640;51.320;9.456;2022-11-18T16:41:39;2.65;;;2.10;;
70981;SDS011;58640;51.320;9.456;2022-11-18T16:44:06;3.40;;;2.00;;
70981;SDS011;58640;51.320;9.456;2022-11-18T16:46:34;3.40;;;2.40;;